Himawari 2 — JG5636 — position and weather

sailwx.info

Track history (hours):
 
Tides and Currents Weather Stations Pressure Air Temp Water Temp Dewpoint Dewpoint Depression Visibility Wind Speed Wind Dir Waves Ship Positions

Himawari 2

Last reported at 2015-Mar-04 14:33 UTC. Time now 2015-Mar-06 14:13 UTC.
Position N 35°06' E 139°44'.

Length 161 m; draft 6.5 m.

Type: Cargo ship. MMSI: 431100957.

Date/timePositionNaut miles runAvg speedWind from/ knotsBaromVisibWave heightAir tempDewpointWater temp
2015-Mar-04 14:33N 35°06' E 139°44'1313.2
2015-Mar-04 13:33N 35°19' E 139°43'1514.9
2015-Mar-04 12:33N 35°32' E 139°51'5 0.4
2015-Mar-04 00:18N 35°38' E 139°50'4 5.4
2015-Mar-03 23:33N 35°34' E 139°51'1312.7
2015-Mar-03 22:33N 35°22' E 139°45'1211.8
2015-Mar-03 21:33N 35°11' E 139°47'24916.3
2015-Mar-03 06:18N 33°56' E 134°58'1317.7
2015-Mar-03 05:33N 34°09' E 134°58'2322.8
2015-Mar-03 04:33N 34°32' E 135°02'10 0.9
2015-Mar-02 17:31N 34°34' E 134°50'1313.4
2015-Mar-02 16:33N 34°36' E 135°05'1514.9
2015-Mar-02 15:33N 34°38' E 135°23'2 2.0
2015-Mar-02 14:32N 34°40' E 135°24'0 0.0
2015-Mar-02 13:32N 34°40' E 135°24'0 0.0
2015-Mar-02 12:32N 34°40' E 135°24'0 0.0
2015-Mar-02 11:32N 34°40' E 135°24'0 0.0
2015-Mar-02 10:32N 34°40' E 135°24'0 0.0
2015-Mar-02 09:32N 34°40' E 135°24'0 0.0
2015-Mar-02 08:32N 34°40' E 135°24'0 0.0
2015-Mar-02 07:32N 34°40' E 135°24'0 0.0
2015-Mar-02 06:26N 34°40' E 135°24'0 0.2
2015-Mar-02 05:33N 34°39' E 135°24'1413.8
2015-Mar-02 04:33N 34°29' E 135°13'1817.6
2015-Mar-02 03:33N 34°16' E 134°59'23014.4
2015-Mar-01 11:33N 35°00' E 139°34'1716.6
2015-Mar-01 10:33N 35°13' E 139°46'1212.5
2015-Mar-01 09:33N 35°25' E 139°44'1313.0
2015-Mar-01 08:33N 35°38' E 139°49'0 0.1
2015-Mar-01 07:30N 35°38' E 139°50'0 0.0
2015-Mar-01 06:33N 35°38' E 139°50'0 0.0
2015-Mar-01 04:33N 35°38' E 139°49'1211.6
2015-Mar-01 03:34N 35°26' E 139°49'1211.9
2015-Mar-01 02:33N 35°14' E 139°47'2019.8
2015-Mar-01 01:33N 34°55' E 139°46'2220.9
2015-Mar-01 00:30N 35°01' E 140°12'  
2015-Feb-25 14:33N 34°57' E 139°43'1817.7
2015-Feb-25 13:33N 35°14' E 139°46'1312.8
2015-Feb-25 12:34N 35°27' E 139°47'1110.9
2015-Feb-25 11:32N 35°38' E 139°50'0 0.0
2015-Feb-25 10:28N 35°38' E 139°50'0 0.0
2015-Feb-25 09:04N 35°38' E 139°50'0 0.0
2015-Feb-25 06:28N 35°38' E 139°50'3 0.4
2015-Feb-24 23:33N 35°35' E 139°51'1313.1
2015-Feb-24 22:33N 35°23' E 139°45'1212.4
2015-Feb-24 21:34N 35°10' E 139°46'1615.9
2015-Feb-24 20:33N 34°57' E 139°35'23618.1
2015-Feb-24 07:27N 33°55' E 134°58'1921.7
2015-Feb-24 06:33N 34°15' E 134°58'2222.4
2015-Feb-24 05:33N 34°37' E 135°01'11 0.9
2015-Feb-23 17:27N 34°34' E 134°48'1415.6
2015-Feb-23 16:33N 34°36' E 135°05'1515.0
2015-Feb-23 15:34N 34°38' E 135°23'2 2.0
2015-Feb-23 14:32N 34°40' E 135°24'0 0.0
2015-Feb-23 13:32N 34°40' E 135°24'0 0.0
2015-Feb-23 12:32N 34°40' E 135°24'0 0.0
2015-Feb-23 11:32N 34°40' E 135°24'0 0.0
2015-Feb-23 10:26N 34°40' E 135°24'0 0.0
2015-Feb-23 09:32N 34°40' E 135°24'0 0.0
2015-Feb-23 08:32N 34°40' E 135°24'0 0.0
2015-Feb-23 07:32N 34°40' E 135°24'0 0.0
2015-Feb-23 06:32N 34°40' E 135°24'0 0.0
2015-Feb-23 05:32N 34°40' E 135°24'10 9.9
2015-Feb-23 04:33N 34°33' E 135°16'1818.2
2015-Feb-23 03:33N 34°19' E 135°01'1817.9
2015-Feb-23 02:33N 34°01' E 135°00'  
Track history (hours):
 
Tides and Currents Weather Stations Pressure Air Temp Water Temp Dewpoint Dewpoint Depression Visibility Wind Speed Wind Dir Waves Ship Positions

Himawari 2

Last reported at 2015-Mar-04 14:33 UTC. Time now 2015-Mar-06 14:13 UTC.
Position N 35°06' E 139°44'.

Length 161 m; draft 6.5 m.

Type: Cargo ship. MMSI: 431100957.

Date/timePositionNaut miles runAvg speedWind from/ knotsBaromVisibWave heightAir tempDewpointWater temp
2015-Mar-04 14:33N 35°06' E 139°44'1313.2
2015-Mar-04 13:33N 35°19' E 139°43'1514.9
2015-Mar-04 12:33N 35°32' E 139°51'5 0.4
2015-Mar-04 00:18N 35°38' E 139°50'4 5.4
2015-Mar-03 23:33N 35°34' E 139°51'1312.7
2015-Mar-03 22:33N 35°22' E 139°45'1211.8
2015-Mar-03 21:33N 35°11' E 139°47'24916.3
2015-Mar-03 06:18N 33°56' E 134°58'1317.7
2015-Mar-03 05:33N 34°09' E 134°58'2322.8
2015-Mar-03 04:33N 34°32' E 135°02'10 0.9
2015-Mar-02 17:31N 34°34' E 134°50'1313.4
2015-Mar-02 16:33N 34°36' E 135°05'1514.9
2015-Mar-02 15:33N 34°38' E 135°23'2 2.0
2015-Mar-02 14:32N 34°40' E 135°24'0 0.0
2015-Mar-02 13:32N 34°40' E 135°24'0 0.0
2015-Mar-02 12:32N 34°40' E 135°24'0 0.0
2015-Mar-02 11:32N 34°40' E 135°24'0 0.0
2015-Mar-02 10:32N 34°40' E 135°24'0 0.0
2015-Mar-02 09:32N 34°40' E 135°24'0 0.0
2015-Mar-02 08:32N 34°40' E 135°24'0 0.0
2015-Mar-02 07:32N 34°40' E 135°24'0 0.0
2015-Mar-02 06:26N 34°40' E 135°24'0 0.2
2015-Mar-02 05:33N 34°39' E 135°24'1413.8
2015-Mar-02 04:33N 34°29' E 135°13'1817.6
2015-Mar-02 03:33N 34°16' E 134°59'23014.4
2015-Mar-01 11:33N 35°00' E 139°34'1716.6
2015-Mar-01 10:33N 35°13' E 139°46'1212.5
2015-Mar-01 09:33N 35°25' E 139°44'1313.0
2015-Mar-01 08:33N 35°38' E 139°49'0 0.1
2015-Mar-01 07:30N 35°38' E 139°50'0 0.0
2015-Mar-01 06:33N 35°38' E 139°50'0 0.0
2015-Mar-01 04:33N 35°38' E 139°49'1211.6
2015-Mar-01 03:34N 35°26' E 139°49'1211.9
2015-Mar-01 02:33N 35°14' E 139°47'2019.8
2015-Mar-01 01:33N 34°55' E 139°46'2220.9
2015-Mar-01 00:30N 35°01' E 140°12'  
2015-Feb-25 14:33N 34°57' E 139°43'1817.7
2015-Feb-25 13:33N 35°14' E 139°46'1312.8
2015-Feb-25 12:34N 35°27' E 139°47'1110.9
2015-Feb-25 11:32N 35°38' E 139°50'0 0.0
2015-Feb-25 10:28N 35°38' E 139°50'0 0.0
2015-Feb-25 09:04N 35°38' E 139°50'0 0.0
2015-Feb-25 06:28N 35°38' E 139°50'3 0.4
2015-Feb-24 23:33N 35°35' E 139°51'1313.1
2015-Feb-24 22:33N 35°23' E 139°45'1212.4
2015-Feb-24 21:34N 35°10' E 139°46'1615.9
2015-Feb-24 20:33N 34°57' E 139°35'23618.1
2015-Feb-24 07:27N 33°55' E 134°58'1921.7
2015-Feb-24 06:33N 34°15' E 134°58'2222.4
2015-Feb-24 05:33N 34°37' E 135°01'11 0.9
2015-Feb-23 17:27N 34°34' E 134°48'1415.6
2015-Feb-23 16:33N 34°36' E 135°05'1515.0
2015-Feb-23 15:34N 34°38' E 135°23'2 2.0
2015-Feb-23 14:32N 34°40' E 135°24'0 0.0
2015-Feb-23 13:32N 34°40' E 135°24'0 0.0
2015-Feb-23 12:32N 34°40' E 135°24'0 0.0
2015-Feb-23 11:32N 34°40' E 135°24'0 0.0
2015-Feb-23 10:26N 34°40' E 135°24'0 0.0
2015-Feb-23 09:32N 34°40' E 135°24'0 0.0
2015-Feb-23 08:32N 34°40' E 135°24'0 0.0
2015-Feb-23 07:32N 34°40' E 135°24'0 0.0
2015-Feb-23 06:32N 34°40' E 135°24'0 0.0
2015-Feb-23 05:32N 34°40' E 135°24'10 9.9
2015-Feb-23 04:33N 34°33' E 135°16'1818.2
2015-Feb-23 03:33N 34°19' E 135°01'1817.9
2015-Feb-23 02:33N 34°01' E 135°00'  

Dump ship's entire track history